Idaho Falls Regional Airport
KIDA : now visible

Airfield :











YOU CAN JOIN US ON...

 
LOGIN :

Register | Disclaimer

   EN    FR    IT 

 









Legend :    VFR   Marginal VFR   IFR   Intensive IFR   Very Intensive IFR
Visi :
Ceiling :
>= 8 km
>= 3000ft
5 to 8 km
1000 to 3000 ft
1500m to 5 km
500 to 1000 ft
800 to 1500m
200 to 500 ft
< 800m
< 200 ft
Symbols :   Thunderstorms  Fog  Heavy snow  Heavy precipitations  Wind > 20 kt






- Airport Elevation : 4744 ft
- IATA code : IDA


KIDA - Idaho Falls Regional

CURRENT METAR :
  • 030753Z 00000KT 10SM CLR 14/10 A3000 RMK AO2 SLP110 T01390100 $

EXPIRED METARs :
  • 030653Z 00000KT 10SM CLR 14/11 A3001 RMK AO2 SLP113 T01440106 403670106 $
  • 030553Z 36003KT 10SM CLR 16/10 A3001 RMK AO2 SLP113 T01560100 10361 20156 51004 $

TAF KIDA
Valid from the 03 at 06:00 until the 04 at 06:00 UTC


030520Z 0306/0406 VRB04KT P6SM SKC
FM031000 01008KT P6SM BKN140 BKN160
FM031500 22015KT P6SM BKN160
FM032000 23015G25KT P6SM SCT160
FM032300 24020G30KT P6SM VCTS FEW090CB
FM040200 32015G25KT P6SM FEW130
KZLC FIR / North America



MET'MAP, your aeronautical weather chart ! - Copyright ORBIFLY December 2007 - Disclaimer

ORBIFLY MET'MAP TEAM :

Programming & Development : Alexandra Zaïnal
Concept & original design : Baudouin d'Aumeries
Assistance for programming : Marc-Olivier Méhu
Technical & hardware support : Manuel Goepfert

Contact : metmap@orbifly.com




SOURCES & CREDITS :

   NOAA       Earth
Advisory